Time;durP1;ratioP1;P1;durP2;ratioP2;P2;SDS_P1;SDS_P2;PMS_P1;PMS_P2;Temp;Humidity;BMP_temperature;BMP_pressure;BME280_temperature;BME280_humidity;BME280_pressure;Samples;Min_cycle;Max_cycle;Signal;HPM_P1;HPM_P2
2023/03/22 00:01:32;;;;;;;1.45;0.65;;;14.70;50.90;;;;;;2307251;55;20935;-69
2023/03/22 00:04:00;;;;;;;2.50;0.80;;;14.70;51.00;;;;;;2535276;54;20995;-69
2023/03/22 00:06:28;;;;;;;2.15;0.75;;;14.70;51.00;;;;;;2535990;54;21011;-68
2023/03/22 00:08:55;;;;;;;1.90;0.80;;;14.60;50.90;;;;;;2543354;53;21000;-69
2023/03/22 00:11:23;;;;;;;2.67;1.10;;;14.50;50.80;;;;;;2302986;54;20969;-72
2023/03/22 00:13:51;;;;;;;1.65;0.70;;;14.50;50.80;;;;;;2303901;55;21095;-68
2023/03/22 00:16:17;;;;;;;1.70;0.90;;;14.50;50.80;;;;;;2302860;55;21011;-68
2023/03/22 00:18:44;;;;;;;1.10;0.60;;;14.40;50.80;;;;;;2543045;54;20955;-69
2023/03/22 00:21:12;;;;;;;2.25;0.82;;;14.40;50.80;;;;;;2306291;55;21118;-69
2023/03/22 00:23:54;;;;;;;1.05;0.50;;;14.40;50.80;;;;;;2306334;54;21059;-70
2023/03/22 00:26:40;;;;;;;1.55;0.75;;;14.30;50.70;;;;;;2543141;54;21063;-69
2023/03/22 00:29:07;;;;;;;1.33;0.60;;;14.30;50.80;;;;;;2541539;53;20972;-70
2023/03/22 00:31:34;;;;;;;2.35;0.90;;;14.20;50.80;;;;;;2304745;55;20944;-69
2023/03/22 00:34:03;;;;;;;1.33;0.57;;;14.20;50.80;;;;;;2305282;55;20955;-69
2023/03/22 00:36:30;;;;;;;2.75;0.90;;;14.20;50.80;;;;;;2543295;54;20955;-68
2023/03/22 00:38:57;;;;;;;2.17;0.90;;;14.10;50.80;;;;;;2304527;55;20944;-69
2023/03/22 00:41:26;;;;;;;3.00;0.90;;;14.10;50.80;;;;;;2308021;54;20985;-69
2023/03/22 00:43:55;;;;;;;1.52;0.70;;;14.00;50.80;;;;;;2304849;55;21075;-68
2023/03/22 00:46:22;;;;;;;1.35;0.50;;;14.00;50.80;;;;;;2304113;55;20999;-69
2023/03/22 00:48:53;;;;;;;1.70;0.70;;;13.90;50.80;;;;;;2544123;53;20979;-69
2023/03/22 00:51:19;;;;;;;2.00;0.80;;;13.90;50.90;;;;;;2307183;55;20955;-70
2023/03/22 00:53:49;;;;;;;2.33;0.80;;;13.90;50.90;;;;;;2542833;53;21011;-70
2023/03/22 00:56:17;;;;;;;2.10;0.80;;;13.80;50.90;;;;;;2303904;55;20964;-68
2023/03/22 00:58:44;;;;;;;1.65;0.70;;;13.80;51.00;;;;;;2543457;53;21024;-69
2023/03/22 01:01:12;;;;;;;3.03;0.80;;;13.70;50.90;;;;;;2541456;54;20947;-69
2023/03/22 01:03:41;;;;;;;2.90;0.80;;;13.70;51.00;;;;;;2543360;54;20995;-70
2023/03/22 01:06:07;;;;;;;2.45;0.93;;;13.70;51.10;;;;;;2303365;55;21035;-69
2023/03/22 01:08:37;;;;;;;2.40;0.88;;;13.60;51.10;;;;;;2544093;53;20984;-69
2023/03/22 01:11:06;;;;;;;1.50;0.63;;;13.60;51.10;;;;;;2305907;55;22075;-68
2023/03/22 01:13:33;;;;;;;1.50;0.60;;;13.60;51.20;;;;;;2540789;53;21839;-69
2023/03/22 01:15:59;;;;;;;1.92;0.70;;;13.50;51.10;;;;;;2543153;54;21900;-70
2023/03/22 01:18:27;;;;;;;1.70;0.90;;;13.50;51.10;;;;;;2304411;55;21015;-69
2023/03/22 01:20:54;;;;;;;1.80;0.75;;;13.50;51.10;;;;;;2543262;54;21106;-69
2023/03/22 01:23:20;;;;;;;2.20;0.90;;;13.40;51.00;;;;;;2306551;54;21072;-69
2023/03/22 01:25:47;;;;;;;1.80;0.70;;;13.40;51.10;;;;;;2544496;53;21091;-69
2023/03/22 01:28:15;;;;;;;2.10;0.85;;;13.40;51.10;;;;;;2303670;54;22107;-68
2023/03/22 01:30:43;;;;;;;2.00;0.95;;;13.40;51.20;;;;;;2307670;55;20971;-69
2023/03/22 01:33:10;;;;;;;2.72;1.02;;;13.30;51.20;;;;;;2518517;54;21563;-70
2023/03/22 01:35:38;;;;;;;2.95;1.17;;;13.30;51.20;;;;;;2543087;54;20939;-69
2023/03/22 01:38:08;;;;;;;2.70;1.33;;;13.30;51.30;;;;;;2305992;55;20951;-69
2023/03/22 01:40:35;;;;;;;3.95;1.17;;;13.30;51.40;;;;;;2515983;54;21003;-69
2023/03/22 01:43:01;;;;;;;2.58;1.10;;;13.20;51.40;;;;;;2544307;54;20956;-70
2023/03/22 01:45:50;;;;;;;2.47;0.90;;;13.20;51.50;;;;;;2543865;54;21071;-69
2023/03/22 01:48:27;;;;;;;2.92;1.10;;;13.20;51.70;;;;;;2305843;54;20947;-68
2023/03/22 01:51:17;;;;;;;2.92;1.20;;;13.20;51.70;;;;;;2544025;54;20984;-69
2023/03/22 01:53:49;;;;;;;3.03;1.20;;;13.20;51.80;;;;;;2305302;55;20944;-68
2023/03/22 01:56:17;;;;;;;3.65;1.10;;;13.20;51.80;;;;;;2305521;55;20983;-69
2023/03/22 01:58:43;;;;;;;3.28;0.93;;;13.20;51.80;;;;;;2541638;54;20940;-69
2023/03/22 02:01:10;;;;;;;4.68;1.58;;;13.20;51.80;;;;;;2542979;54;20948;-69
2023/03/22 02:03:52;;;;;;;3.40;1.58;;;13.20;51.80;;;;;;2309205;54;21012;-68
2023/03/22 02:06:18;;;;;;;2.87;1.07;;;13.20;51.90;;;;;;2285000;55;21540;-69
2023/03/22 02:08:45;;;;;;;3.67;1.10;;;13.20;51.90;;;;;;2543984;54;20935;-69
2023/03/22 02:11:16;;;;;;;2.35;1.00;;;13.20;51.90;;;;;;2542401;54;21908;-70
2023/03/22 02:15:51;;;;;;;3.67;1.25;;;13.30;52.10;;;;;;2543600;54;20975;-69
2023/03/22 02:19:34;;;;;;;2.72;1.00;;;13.30;52.20;;;;;;2541617;53;21033;-69
2023/03/22 02:22:22;;;;;;;3.95;1.23;;;13.30;52.10;;;;;;2542991;53;21701;-70
2023/03/22 02:27:06;;;;;;;3.53;1.17;;;13.30;52.10;;;;;;2304599;54;21086;-69
2023/03/22 02:29:59;;;;;;;3.28;1.05;;;13.40;52.20;;;;;;2544249;54;21874;-69
2023/03/22 02:33:46;;;;;;;;;;;13.40;52.10;;;;;;2547309;54;21597;-70
2023/03/22 02:36:47;;;;;;;2.67;0.90;;;13.40;52.10;;;;;;2542588;54;20063;-68
2023/03/22 02:41:33;;;;;;;2.20;0.88;;;13.40;52.20;;;;;;2304560;55;20966;-70
2023/03/22 02:44:25;;;;;;;3.50;1.10;;;13.40;52.30;;;;;;2305749;55;20995;-68
2023/03/22 02:47:53;;;;;;;2.92;1.02;;;13.40;52.20;;;;;;2306929;55;20987;-70
2023/03/22 02:50:37;;;;;;;2.10;1.00;;;13.40;52.30;;;;;;2544601;53;21079;-68
2023/03/22 02:53:15;;;;;;;2.20;0.90;;;13.50;52.30;;;;;;2543209;54;21116;-70
2023/03/22 02:56:10;;;;;;;1.87;0.90;;;13.50;52.30;;;;;;2285654;55;21022;-69
2023/03/22 02:58:38;;;;;;;2.60;1.10;;;13.50;52.30;;;;;;2543623;54;20963;-69
2023/03/22 03:01:09;;;;;;;3.28;1.40;;;13.50;52.30;;;;;;2541446;54;21463;-69
2023/03/22 03:03:36;;;;;;;4.12;1.15;;;13.50;52.30;;;;;;2306504;54;21322;-68
2023/03/22 03:06:12;;;;;;;3.03;1.10;;;13.50;52.30;;;;;;2544272;53;20953;-69
2023/03/22 03:08:39;;;;;;;2.78;1.10;;;13.40;52.20;;;;;;2516980;54;21442;-70
2023/03/22 03:11:07;;;;;;;2.92;1.20;;;13.40;52.10;;;;;;2303767;55;21600;-68
2023/03/22 03:13:34;;;;;;;3.42;1.30;;;13.40;52.10;;;;;;2541272;53;21004;-69
2023/03/22 03:16:01;;;;;;;2.55;1.20;;;13.40;52.10;;;;;;2542935;53;20976;-69
2023/03/22 03:19:24;;;;;;;3.37;1.23;;;13.40;52.20;;;;;;2303619;55;21547;-68
2023/03/22 03:24:31;;;;;;;3.33;0.98;;;13.40;52.30;;;;;;2543242;54;21479;-68
2023/03/22 03:27:18;;;;;;;2.92;1.08;;;13.40;52.20;;;;;;2541922;54;21883;-69
2023/03/22 03:29:53;;;;;;;3.50;1.40;;;13.40;52.20;;;;;;2541906;53;21545;-70
2023/03/22 03:32:30;;;;;;;3.28;1.27;;;13.40;52.30;;;;;;2529281;54;21380;-69
2023/03/22 03:35:24;;;;;;;4.90;1.73;;;13.40;52.40;;;;;;2542720;53;21012;-69
2023/03/22 03:37:56;;;;;;;1.92;0.82;;;13.40;52.40;;;;;;2541802;54;21260;-69
2023/03/22 03:40:30;;;;;;;2.90;1.35;;;13.30;52.40;;;;;;2302054;55;20991;-69
2023/03/22 03:43:03;;;;;;;2.78;1.27;;;13.30;52.40;;;;;;2303055;55;21007;-70
2023/03/22 03:45:30;;;;;;;3.10;1.40;;;13.30;52.40;;;;;;2290366;55;21538;-70
2023/03/22 03:47:58;;;;;;;2.53;1.15;;;13.40;52.50;;;;;;2542012;53;20945;-69
2023/03/22 03:50:25;;;;;;;4.03;1.30;;;13.40;52.50;;;;;;2302999;55;21098;-69
2023/03/22 03:52:52;;;;;;;5.43;1.60;;;13.30;52.50;;;;;;2303934;55;21044;-72
2023/03/22 03:55:20;;;;;;;3.28;1.27;;;13.30;52.50;;;;;;2541987;54;20971;-69
2023/03/22 03:57:47;;;;;;;3.67;1.70;;;13.30;52.50;;;;;;2543018;54;21341;-68
2023/03/22 04:00:14;;;;;;;2.60;1.30;;;13.40;52.50;;;;;;2304632;55;20971;-69
2023/03/22 04:02:44;;;;;;;3.60;1.40;;;13.20;52.40;;;;;;2305907;54;21056;-69
2023/03/22 04:05:11;;;;;;;2.03;0.95;;;13.40;52.60;;;;;;2543341;54;20915;-69
2023/03/22 04:07:37;;;;;;;3.78;1.20;;;13.40;52.60;;;;;;2543292;54;21005;-69
2023/03/22 04:10:07;;;;;;;3.58;1.17;;;13.30;52.50;;;;;;2304450;54;20955;-70
2023/03/22 04:12:33;;;;;;;3.50;1.27;;;13.40;52.60;;;;;;2304296;55;21378;-69
2023/03/22 04:15:01;;;;;;;2.70;1.10;;;13.40;52.50;;;;;;2305716;55;21005;-70
2023/03/22 04:17:28;;;;;;;3.58;1.10;;;13.40;52.50;;;;;;2542030;53;20940;-68
2023/03/22 04:19:57;;;;;;;3.85;1.58;;;13.40;52.50;;;;;;2305106;55;21090;-69
2023/03/22 04:22:24;;;;;;;2.70;1.08;;;13.40;52.50;;;;;;2304954;54;21462;-70
2023/03/22 04:24:50;;;;;;;3.15;1.08;;;13.40;52.40;;;;;;2305492;55;21042;-69
2023/03/22 04:27:20;;;;;;;2.92;1.00;;;13.40;52.30;;;;;;2542093;53;21013;-70
2023/03/22 04:29:49;;;;;;;3.65;1.00;;;13.40;52.30;;;;;;2544434;53;20996;-68
2023/03/22 04:32:17;;;;;;;2.10;1.00;;;13.40;52.20;;;;;;2542368;54;21465;-70
2023/03/22 04:34:45;;;;;;;2.72;1.20;;;13.40;52.10;;;;;;2544548;54;21102;-70
2023/03/22 04:37:12;;;;;;;3.45;1.10;;;13.40;52.10;;;;;;2542771;54;20936;-69
2023/03/22 04:39:38;;;;;;;2.35;1.05;;;13.30;52.00;;;;;;2542152;54;21085;-69
2023/03/22 04:42:05;;;;;;;2.08;0.90;;;13.30;52.00;;;;;;2306307;55;20989;-69
2023/03/22 04:44:31;;;;;;;4.47;1.27;;;13.30;52.00;;;;;;2541909;54;20971;-68
2023/03/22 04:46:58;;;;;;;3.25;0.88;;;13.20;51.80;;;;;;2542809;54;20920;-69
2023/03/22 04:49:25;;;;;;;2.28;0.90;;;13.20;51.80;;;;;;2302604;55;22031;-68
2023/03/22 04:51:53;;;;;;;3.08;1.10;;;13.20;51.90;;;;;;2303323;55;21373;-68
2023/03/22 04:54:23;;;;;;;2.47;1.02;;;13.10;51.90;;;;;;2541539;54;20991;-69
2023/03/22 04:56:49;;;;;;;2.65;1.05;;;13.10;51.90;;;;;;2302499;54;21002;-69
2023/03/22 04:59:19;;;;;;;2.85;1.00;;;13.10;52.00;;;;;;2302596;55;20959;-69
2023/03/22 05:01:49;;;;;;;2.80;1.10;;;13.10;52.00;;;;;;2303773;55;21972;-70
2023/03/22 05:04:16;;;;;;;3.22;1.10;;;13.00;52.00;;;;;;2542249;54;20936;-70
2023/03/22 05:06:45;;;;;;;3.90;1.33;;;13.00;52.10;;;;;;2303799;55;21039;-68
2023/03/22 05:09:15;;;;;;;3.30;1.00;;;13.00;52.20;;;;;;2541813;54;22043;-69
2023/03/22 05:11:41;;;;;;;2.78;1.23;;;13.00;52.40;;;;;;2530762;54;21046;-70
2023/03/22 05:14:07;;;;;;;3.22;1.23;;;13.00;52.40;;;;;;2290141;55;20987;-69
2023/03/22 05:16:34;;;;;;;2.95;1.40;;;13.00;52.50;;;;;;2303353;54;21936;-69
2023/03/22 05:19:12;;;;;;;3.92;1.50;;;13.00;52.60;;;;;;2303961;55;20991;-68
2023/03/22 05:21:42;;;;;;;2.75;1.20;;;13.00;53.20;;;;;;2306519;55;21018;-68
2023/03/22 05:24:09;;;;;;;3.35;1.33;;;13.00;52.70;;;;;;2541944;54;22007;-69
2023/03/22 05:26:41;;;;;;;2.83;1.17;;;13.00;52.70;;;;;;2541526;54;21561;-69
2023/03/22 05:29:12;;;;;;;3.08;1.30;;;13.00;52.80;;;;;;2542925;54;20984;-69
2023/03/22 05:31:41;;;;;;;4.13;1.43;;;13.00;52.80;;;;;;2544366;53;21024;-68
2023/03/22 05:34:08;;;;;;;3.45;1.20;;;13.00;52.80;;;;;;2305032;55;21682;-70
2023/03/22 05:36:37;;;;;;;3.03;1.20;;;13.00;52.80;;;;;;2526938;54;21003;-68
2023/03/22 05:39:03;;;;;;;3.78;1.50;;;13.00;52.80;;;;;;2303588;55;21013;-67
2023/03/22 05:41:32;;;;;;;2.30;1.02;;;13.10;53.00;;;;;;2302559;55;21094;-69
2023/03/22 05:44:02;;;;;;;2.80;1.35;;;13.10;53.00;;;;;;2542539;54;20959;-67
2023/03/22 05:46:28;;;;;;;3.03;1.20;;;13.10;52.90;;;;;;2541652;54;20952;-68
2023/03/22 05:48:55;;;;;;;2.50;1.00;;;13.10;52.90;;;;;;2541727;54;20936;-68
2023/03/22 05:51:30;;;;;;;3.30;1.25;;;13.10;52.90;;;;;;2308168;55;20983;-71
2023/03/22 05:53:58;;;;;;;2.55;1.00;;;13.20;53.00;;;;;;2544938;53;21013;-70
2023/03/22 05:56:25;;;;;;;2.75;0.93;;;13.20;53.00;;;;;;2518476;54;21046;-70
2023/03/22 05:58:52;;;;;;;3.20;1.12;;;13.20;53.00;;;;;;2516896;54;21218;-70
2023/03/22 06:01:20;;;;;;;4.10;1.10;;;13.20;53.00;;;;;;2304088;55;20964;-72
2023/03/22 06:03:47;;;;;;;4.45;1.15;;;13.20;53.00;;;;;;2306526;55;20992;-71
2023/03/22 06:06:14;;;;;;;2.37;0.80;;;13.30;53.10;;;;;;2545164;54;20983;-67
2023/03/22 06:08:43;;;;;;;3.80;1.12;;;13.30;53.10;;;;;;2545479;54;21393;-70
2023/03/22 06:11:10;;;;;;;3.67;1.00;;;13.30;53.10;;;;;;2545368;54;21016;-71
2023/03/22 06:13:45;;;;;;;2.05;0.88;;;13.30;53.10;;;;;;2543000;54;21012;-71
2023/03/22 06:16:16;;;;;;;3.55;1.27;;;13.40;53.10;;;;;;2541104;53;21024;-67
2023/03/22 06:18:46;;;;;;;2.58;0.95;;;13.40;53.10;;;;;;2543733;54;21991;-68
2023/03/22 06:21:16;;;;;;;3.25;1.00;;;13.50;53.20;;;;;;2307969;55;21482;-69
2023/03/22 06:23:46;;;;;;;3.25;1.30;;;13.30;53.00;;;;;;2523162;53;21391;-70
2023/03/22 06:26:25;;;;;;;3.55;1.00;;;13.50;53.10;;;;;;2305361;54;20963;-68
2023/03/22 06:28:51;;;;;;;2.30;1.00;;;13.50;53.10;;;;;;2544977;54;21540;-68
2023/03/22 06:31:20;;;;;;;2.60;1.00;;;13.60;53.20;;;;;;2308615;55;21049;-68
2023/03/22 06:33:50;;;;;;;2.42;0.90;;;13.60;53.20;;;;;;2305657;54;21915;-69
2023/03/22 06:36:22;;;;;;;2.85;1.10;;;13.60;53.20;;;;;;2546352;54;21357;-69
2023/03/22 06:39:08;;;;;;;2.72;1.08;;;13.70;53.30;;;;;;2528156;53;21045;-68
2023/03/22 06:41:34;;;;;;;1.98;0.88;;;13.70;53.30;;;;;;2532913;54;20928;-69
2023/03/22 06:44:08;;;;;;;2.62;0.90;;;13.80;53.50;;;;;;2546579;54;20940;-69
2023/03/22 06:46:48;;;;;;;3.00;0.90;;;13.80;53.50;;;;;;2543891;54;21271;-69
2023/03/22 06:49:28;;;;;;;3.17;0.90;;;13.90;53.60;;;;;;2541276;53;21139;-69
2023/03/22 06:52:00;;;;;;;2.62;0.80;;;13.90;53.70;;;;;;2537700;54;22065;-68
2023/03/22 06:54:27;;;;;;;2.60;1.08;;;14.00;53.70;;;;;;2493982;54;20962;-69
2023/03/22 06:56:53;;;;;;;3.15;1.10;;;14.10;53.70;;;;;;2299442;55;21035;-68
2023/03/22 06:59:42;;;;;;;2.25;0.70;;;14.10;53.70;;;;;;2303760;55;20973;-70
2023/03/22 07:02:10;;;;;;;3.22;0.85;;;14.20;53.70;;;;;;2310649;54;21396;-69
2023/03/22 07:04:37;;;;;;;4.78;1.30;;;14.30;53.70;;;;;;2292147;55;21412;-70
2023/03/22 07:07:09;;;;;;;2.87;1.05;;;14.40;53.70;;;;;;2539231;54;20987;-69
2023/03/22 07:09:39;;;;;;;2.47;0.80;;;14.50;53.70;;;;;;2537877;53;20963;-69
2023/03/22 07:12:06;;;;;;;4.10;1.20;;;14.50;53.60;;;;;;2543950;54;20998;-69
2023/03/22 07:14:32;;;;;;;3.15;1.00;;;14.60;53.60;;;;;;2307047;55;20999;-69
2023/03/22 07:16:59;;;;;;;2.37;0.95;;;14.60;53.50;;;;;;2545445;54;21077;-69
2023/03/22 07:19:30;;;;;;;2.55;0.90;;;14.70;53.60;;;;;;2304938;55;21007;-69
2023/03/22 07:22:08;;;;;;;2.40;1.10;;;14.80;53.60;;;;;;2543995;53;21007;-68
2023/03/22 07:24:39;;;;;;;3.08;1.10;;;14.90;53.50;;;;;;2543860;54;20952;-69
2023/03/22 07:27:16;;;;;;;4.10;1.65;;;14.90;53.50;;;;;;2544535;54;21151;-68
2023/03/22 07:29:46;;;;;;;6.00;2.65;;;14.90;53.40;;;;;;2306686;55;20931;-69
2023/03/22 07:32:22;;;;;;;5.25;2.90;;;15.00;53.30;;;;;;2304888;55;21011;-69
2023/03/22 07:34:55;;;;;;;4.80;2.65;;;15.10;53.40;;;;;;2545002;54;21124;-68
2023/03/22 07:37:29;;;;;;;3.75;1.87;;;15.20;53.40;;;;;;2543207;54;21648;-69
2023/03/22 07:39:59;;;;;;;4.35;1.98;;;15.20;53.30;;;;;;2546092;54;20999;-70
2023/03/22 07:42:30;;;;;;;3.03;1.52;;;15.30;53.20;;;;;;2543615;53;20981;-70
2023/03/22 07:44:59;;;;;;;3.20;1.30;;;15.40;53.30;;;;;;2306929;54;21612;-69
2023/03/22 07:47:25;;;;;;;2.70;0.98;;;15.50;53.20;;;;;;2520235;54;21067;-69
2023/03/22 07:50:08;;;;;;;3.22;1.10;;;15.50;53.20;;;;;;2546105;54;21018;-69
2023/03/22 07:52:35;;;;;;;3.05;1.12;;;15.60;53.20;;;;;;2544586;53;20969;-70
2023/03/22 07:55:01;;;;;;;2.83;1.12;;;15.60;53.20;;;;;;2304407;55;20946;-69
2023/03/22 07:57:28;;;;;;;2.15;0.90;;;15.70;53.40;;;;;;2539245;53;20990;-69
2023/03/22 07:59:55;;;;;;;2.95;1.10;;;15.80;53.20;;;;;;2524044;54;20984;-70
2023/03/22 08:02:24;;;;;;;2.40;1.00;;;15.80;53.20;;;;;;2305749;55;22722;-68
2023/03/22 08:04:52;;;;;;;2.87;0.98;;;15.90;53.30;;;;;;2545361;53;21474;-71
2023/03/22 08:07:23;;;;;;;2.75;1.02;;;16.00;53.40;;;;;;2546042;54;21004;-70
2023/03/22 08:09:50;;;;;;;2.97;1.10;;;16.10;53.40;;;;;;2305504;55;22019;-70
2023/03/22 08:12:19;;;;;;;2.72;1.05;;;16.20;53.60;;;;;;2303317;54;21789;-70
2023/03/22 08:14:50;;;;;;;1.80;0.62;;;16.30;53.70;;;;;;2548414;54;20967;-70
2023/03/22 08:17:18;;;;;;;2.30;0.90;;;16.40;53.70;;;;;;2296256;55;21007;-72
2023/03/22 08:19:45;;;;;;;2.85;0.90;;;16.50;53.70;;;;;;2303469;55;20931;-70
2023/03/22 08:22:23;;;;;;;3.53;1.33;;;16.80;53.90;;;;;;2544248;54;20989;-69
2023/03/22 08:24:51;;;;;;;3.20;1.00;;;16.80;53.70;;;;;;2545401;53;20951;-70
2023/03/22 08:27:18;;;;;;;2.20;0.85;;;16.90;53.60;;;;;;2310682;54;20951;-70
2023/03/22 08:29:47;;;;;;;2.80;0.90;;;17.10;53.60;;;;;;2544957;53;21023;-70
2023/03/22 08:32:15;;;;;;;2.62;1.12;;;17.20;53.50;;;;;;2530202;54;22006;-71
2023/03/22 08:34:41;;;;;;;6.03;1.00;;;17.30;53.60;;;;;;2534520;54;20931;-70
2023/03/22 08:37:08;;;;;;;2.42;0.80;;;17.50;53.60;;;;;;2544715;54;21033;-70
2023/03/22 08:39:37;;;;;;;3.03;0.80;;;17.60;53.50;;;;;;2306282;55;20952;-70
2023/03/22 08:42:08;;;;;;;2.50;0.90;;;17.70;53.40;;;;;;2541061;53;21004;-71
2023/03/22 08:44:37;;;;;;;3.33;1.10;;;17.90;53.40;;;;;;2289517;55;20944;-69
2023/03/22 08:47:04;;;;;;;2.00;0.77;;;18.00;53.00;;;;;;2306312;55;21981;-71
2023/03/22 08:49:30;;;;;;;2.90;0.70;;;18.20;52.90;;;;;;2545952;53;21040;-70
2023/03/22 08:52:06;;;;;;;1.58;0.68;;;18.30;52.80;;;;;;2543925;53;20964;-70
2023/03/22 08:54:32;;;;;;;2.22;0.90;;;18.40;52.60;;;;;;2517343;54;21008;-70
2023/03/22 08:57:07;;;;;;;2.42;0.93;;;18.50;52.70;;;;;;2547657;54;21455;-70
2023/03/22 08:59:36;;;;;;;2.30;0.62;;;18.70;52.50;;;;;;2307647;55;21075;-70
2023/03/22 09:02:03;;;;;;;2.42;0.70;;;18.80;52.30;;;;;;2516853;54;20932;-71
2023/03/22 09:04:30;;;;;;;2.33;0.70;;;18.90;52.50;;;;;;2545590;53;20953;-72
2023/03/22 09:06:56;;;;;;;1.98;0.60;;;19.00;52.40;;;;;;2543206;54;21083;-71
2023/03/22 09:09:26;;;;;;;1.80;0.60;;;19.20;52.40;;;;;;2308783;55;21495;-71
2023/03/22 09:11:57;;;;;;;2.00;0.62;;;19.30;52.40;;;;;;2312079;54;20983;-71
2023/03/22 09:14:24;;;;;;;1.70;0.50;;;19.40;52.50;;;;;;2546553;54;20952;-70
2023/03/22 09:17:14;;;;;;;2.42;0.60;;;19.50;52.30;;;;;;2308741;54;20997;-71
2023/03/22 09:20:10;;;;;;;3.70;0.70;;;19.70;51.90;;;;;;2545575;53;21001;-71
2023/03/22 09:22:42;;;;;;;1.12;0.50;;;19.80;52.50;;;;;;2545335;54;21033;-71
2023/03/22 09:25:11;;;;;;;1.87;0.62;;;20.00;52.40;;;;;;2309253;55;21372;-70
2023/03/22 09:27:42;;;;;;;1.73;0.55;;;20.10;52.10;;;;;;2546146;53;21048;-70
2023/03/22 09:30:19;;;;;;;1.40;0.50;;;20.20;52.00;;;;;;2546869;53;21913;-70
2023/03/22 09:32:47;;;;;;;1.83;0.70;;;20.40;51.90;;;;;;2546434;53;20983;-71
2023/03/22 09:35:15;;;;;;;2.08;0.60;;;20.50;51.70;;;;;;2304745;55;21469;-72
2023/03/22 09:37:41;;;;;;;1.20;0.60;;;20.60;51.60;;;;;;2307954;55;21458;-70
2023/03/22 09:40:10;;;;;;;1.95;0.75;;;20.70;51.50;;;;;;2532380;54;21402;-71
2023/03/22 09:42:44;;;;;;;1.65;0.60;;;20.80;51.20;;;;;;2531988;53;21009;-71
2023/03/22 09:45:36;;;;;;;1.70;0.60;;;20.90;51.10;;;;;;2546405;54;21023;-72
2023/03/22 09:48:09;;;;;;;1.08;0.50;;;21.10;50.60;;;;;;2544430;54;21021;-70
2023/03/22 09:50:50;;;;;;;1.77;0.70;;;21.20;51.00;;;;;;2292490;55;21375;-71
2023/03/22 09:53:17;;;;;;;1.05;0.50;;;21.30;50.30;;;;;;2306828;55;20967;-71
2023/03/22 09:57:48;;;;;;;2.67;0.60;;;21.40;50.50;;;;;;2538145;53;21055;-71
2023/03/22 10:03:31;;;;;;;2.37;0.62;;;21.50;49.80;;;;;;2309592;55;21305;-72
2023/03/22 10:06:20;;;;;;;2.37;0.82;;;21.70;49.50;;;;;;2314453;54;20972;-69
2023/03/22 10:08:58;;;;;;;2.37;0.90;;;21.90;49.50;;;;;;2542155;54;21374;-70
2023/03/22 10:11:48;;;;;;;2.70;0.70;;;22.00;49.60;;;;;;2518796;54;21869;-69
2023/03/22 10:14:33;;;;;;;1.73;0.60;;;22.00;49.00;;;;;;2543714;53;21056;-71
2023/03/22 10:17:05;;;;;;;1.40;0.47;;;22.10;49.30;;;;;;2546539;54;21010;-69
2023/03/22 10:20:30;;;;;;;1.73;0.65;;;22.20;49.70;;;;;;2307678;55;22396;-69
2023/03/22 10:22:57;;;;;;;2.35;0.90;;;22.30;49.20;;;;;;2303459;55;20948;-70
2023/03/22 10:25:37;;;;;;;1.85;0.80;;;22.30;49.50;;;;;;2312143;55;20987;-71
2023/03/22 10:28:36;;;;;;;1.58;0.60;;;22.40;49.10;;;;;;2313658;55;21001;-69
2023/03/22 10:31:25;;;;;;;2.62;0.70;;;22.50;48.70;;;;;;2305698;55;20995;-71
2023/03/22 10:34:39;;;;;;;1.98;0.73;;;22.60;48.20;;;;;;2304322;55;21674;-69
2023/03/22 10:37:07;;;;;;;1.75;0.62;;;22.70;48.50;;;;;;2541425;54;21556;-69
2023/03/22 10:40:22;;;;;;;2.60;0.77;;;22.70;48.90;;;;;;2544068;54;21420;-69
2023/03/22 10:42:59;;;;;;;1.95;0.77;;;22.80;48.20;;;;;;2545800;54;20964;-70
2023/03/22 10:45:29;;;;;;;2.42;0.75;;;22.80;47.70;;;;;;2535718;53;21963;-70
2023/03/22 10:48:38;;;;;;;1.73;0.60;;;22.90;48.10;;;;;;2305961;55;21004;-71
2023/03/22 10:51:05;;;;;;;1.48;0.60;;;23.00;47.50;;;;;;2521427;53;21142;-68
2023/03/22 10:53:44;;;;;;;1.85;0.85;;;23.00;48.10;;;;;;2543633;54;21063;-69
2023/03/22 10:56:26;;;;;;;1.65;0.60;;;23.10;47.40;;;;;;2541873;54;20940;-69
2023/03/22 10:59:42;;;;;;;2.28;0.60;;;23.20;47.70;;;;;;2545041;53;20970;-71
2023/03/22 11:02:31;;;;;;;2.58;0.70;;;23.20;47.30;;;;;;2307338;55;21968;-69
2023/03/22 11:05:04;;;;;;;1.15;0.40;;;23.30;46.90;;;;;;2546469;54;20935;-70
2023/03/22 11:07:46;;;;;;;0.90;0.40;;;23.30;46.80;;;;;;2545814;54;20958;-71
2023/03/22 11:10:48;;;;;;;0.95;0.40;;;23.30;46.60;;;;;;2549055;54;20940;-70
2023/03/22 11:13:27;;;;;;;1.70;0.60;;;23.40;45.30;;;;;;2544620;53;21850;-69
2023/03/22 11:16:03;;;;;;;1.17;0.50;;;23.40;45.40;;;;;;2311190;54;21535;-71
2023/03/22 11:18:32;;;;;;;1.85;0.52;;;23.40;45.90;;;;;;2552271;54;21495;-71
2023/03/22 11:21:06;;;;;;;1.62;0.50;;;23.40;45.70;;;;;;2313147;55;21024;-72
2023/03/22 11:23:33;;;;;;;1.62;0.50;;;23.50;45.90;;;;;;2550745;54;21078;-71
2023/03/22 11:26:12;;;;;;;1.20;0.50;;;23.50;45.60;;;;;;2524933;53;22044;-71
2023/03/22 11:28:50;;;;;;;1.48;0.47;;;23.50;44.80;;;;;;2303339;55;21053;-72
2023/03/22 11:31:24;;;;;;;2.37;0.60;;;23.50;44.90;;;;;;2311052;55;21028;-70
2023/03/22 11:34:00;;;;;;;1.33;0.50;;;23.50;44.90;;;;;;2545436;53;21103;-70
2023/03/22 11:36:27;;;;;;;1.83;0.60;;;23.60;44.30;;;;;;2305228;55;20940;-71
2023/03/22 11:39:00;;;;;;;1.52;0.60;;;23.60;44.80;;;;;;2305289;55;20956;-70
2023/03/22 11:41:35;;;;;;;2.03;0.70;;;23.60;44.50;;;;;;2304772;55;21039;-70
2023/03/22 11:44:09;;;;;;;2.00;0.52;;;23.60;44.70;;;;;;2544290;54;20951;-71
2023/03/22 11:46:35;;;;;;;1.77;0.62;;;23.70;44.60;;;;;;2542604;54;21294;-69
2023/03/22 11:49:07;;;;;;;1.35;0.50;;;23.60;44.30;;;;;;2304518;55;20999;-71
2023/03/22 11:51:36;;;;;;;1.90;0.80;;;23.70;44.30;;;;;;2305727;55;21413;-70
2023/03/22 11:54:18;;;;;;;1.40;0.60;;;23.70;44.20;;;;;;2305353;55;21468;-71
2023/03/22 11:56:46;;;;;;;1.42;0.50;;;23.80;43.90;;;;;;2543248;54;21577;-70
2023/03/22 11:59:15;;;;;;;1.15;0.50;;;23.70;44.10;;;;;;2543770;54;20979;-70
2023/03/22 12:02:03;;;;;;;1.25;0.57;;;23.90;44.20;;;;;;2544113;54;21011;-72
2023/03/22 12:04:34;;;;;;;2.20;0.60;;;23.90;43.20;;;;;;2544179;54;21063;-72
2023/03/22 12:07:04;;;;;;;1.70;0.70;;;24.00;43.70;;;;;;2304931;55;20963;-71
2023/03/22 12:09:42;;;;;;;1.52;0.52;;;24.00;43.50;;;;;;2543509;54;20972;-74
2023/03/22 12:12:19;;;;;;;1.70;0.60;;;24.00;43.60;;;;;;2305142;54;21043;-71
2023/03/22 12:15:37;;;;;;;1.37;0.60;;;24.10;43.70;;;;;;2544564;53;20959;-71
2023/03/22 12:18:26;;;;;;;1.87;0.70;;;24.10;43.70;;;;;;2542949;53;20980;-72
2023/03/22 12:20:59;;;;;;;1.42;0.52;;;24.20;42.80;;;;;;2544595;53;20948;-73
2023/03/22 12:23:30;;;;;;;2.12;0.65;;;24.30;43.00;;;;;;2543763;54;20976;-73
2023/03/22 12:26:17;;;;;;;2.60;0.77;;;24.30;43.00;;;;;;2543506;53;20943;-75
2023/03/22 12:28:58;;;;;;;1.23;0.60;;;24.30;42.20;;;;;;2544939;54;20971;-69
2023/03/22 12:31:40;;;;;;;1.25;0.50;;;24.30;42.30;;;;;;2308375;55;20967;-72
2023/03/22 12:34:12;;;;;;;1.17;0.60;;;24.30;42.70;;;;;;2543730;54;21071;-74
2023/03/22 12:36:43;;;;;;;;;;;24.30;42.90;;;;;;2547784;54;20995;-71
2023/03/22 12:39:24;;;;;;;1.77;0.65;;;24.40;43.20;;;;;;2544190;54;20186;-72
2023/03/22 12:41:51;;;;;;;2.20;0.68;;;24.40;42.70;;;;;;2304604;55;21523;-72
2023/03/22 12:44:36;;;;;;;1.30;0.50;;;24.40;42.90;;;;;;2305237;55;20927;-72
2023/03/22 12:47:11;;;;;;;1.95;0.50;;;24.40;42.70;;;;;;2543744;54;21004;-71
2023/03/22 12:52:49;;;;;;;1.80;0.65;;;24.40;42.30;;;;;;2543781;53;21275;-72
2023/03/22 12:55:22;;;;;;;1.33;0.50;;;24.40;42.30;;;;;;2308873;55;21029;-71
2023/03/22 12:57:53;;;;;;;1.85;0.65;;;24.50;42.40;;;;;;2304694;54;20975;-71
2023/03/22 13:03:52;;;;;;;2.00;0.73;;;24.50;42.20;;;;;;2306708;55;20996;-71
2023/03/22 13:08:10;;;;;;;2.60;0.60;;;24.50;42.10;;;;;;2307717;55;20972;-72
2023/03/22 13:10:40;;;;;;;1.90;0.65;;;24.60;42.00;;;;;;2542026;53;21064;-72
2023/03/22 13:13:49;;;;;;;1.95;0.60;;;24.60;42.10;;;;;;2303880;55;20952;-71
2023/03/22 13:16:21;;;;;;;2.28;0.70;;;24.60;41.60;;;;;;2542717;54;21003;-71
2023/03/22 13:18:57;;;;;;;1.33;0.52;;;24.60;41.90;;;;;;2543105;54;21003;-71
2023/03/22 13:21:26;;;;;;;1.95;0.80;;;24.60;41.40;;;;;;2306322;55;20988;-71
2023/03/22 13:24:56;;;;;;;1.95;0.73;;;24.70;41.80;;;;;;2303886;54;21046;-70
2023/03/22 13:27:23;;;;;;;1.48;0.60;;;24.70;40.90;;;;;;2543043;54;21387;-70
2023/03/22 13:29:52;;;;;;;1.58;0.50;;;24.80;41.50;;;;;;2543138;54;20951;-71
2023/03/22 13:32:29;;;;;;;1.85;0.80;;;24.80;41.30;;;;;;2515561;54;20961;-71
2023/03/22 13:34:55;;;;;;;3.15;0.70;;;24.80;40.60;;;;;;2303886;55;20995;-71
2023/03/22 13:37:46;;;;;;;2.03;0.60;;;24.90;41.10;;;;;;2303798;55;21453;-71
2023/03/22 13:40:36;;;;;;;1.95;0.70;;;25.00;40.50;;;;;;2303974;55;20971;-73
2023/03/22 13:44:34;;;;;;;1.23;0.50;;;25.00;40.10;;;;;;2542261;54;20932;-73
2023/03/22 13:47:02;;;;;;;1.60;0.60;;;25.00;40.10;;;;;;2542019;54;21091;-71